sensor_id;sensor_type;location;lat;lon;timestamp;temperature;humidity
26909;DHT22;14477;51.038;4.588;2022-10-31T00:02:24;15.90;84.10
26909;DHT22;14477;51.038;4.588;2022-10-31T00:04:50;15.90;84.30
26909;DHT22;14477;51.038;4.588;2022-10-31T00:07:15;15.90;84.40
26909;DHT22;14477;51.038;4.588;2022-10-31T00:09:41;15.90;84.50
26909;DHT22;14477;51.038;4.588;2022-10-31T00:12:07;15.90;84.50
26909;DHT22;14477;51.038;4.588;2022-10-31T00:14:32;15.90;84.50
26909;DHT22;14477;51.038;4.588;2022-10-31T00:16:58;15.90;84.60
26909;DHT22;14477;51.038;4.588;2022-10-31T00:19:23;15.90;84.60
26909;DHT22;14477;51.038;4.588;2022-10-31T00:21:51;15.90;84.60
26909;DHT22;14477;51.038;4.588;2022-10-31T00:24:17;15.80;84.80
26909;DHT22;14477;51.038;4.588;2022-10-31T00:26:42;15.80;84.50
26909;DHT22;14477;51.038;4.588;2022-10-31T00:29:08;15.80;84.50
26909;DHT22;14477;51.038;4.588;2022-10-31T00:31:34;15.80;84.50
26909;DHT22;14477;51.038;4.588;2022-10-31T00:33:59;15.80;84.50
26909;DHT22;14477;51.038;4.588;2022-10-31T00:36:25;15.70;84.40
26909;DHT22;14477;51.038;4.588;2022-10-31T00:38:51;15.70;84.50
26909;DHT22;14477;51.038;4.588;2022-10-31T00:41:17;15.60;84.30
26909;DHT22;14477;51.038;4.588;2022-10-31T00:43:43;15.60;84.40
26909;DHT22;14477;51.038;4.588;2022-10-31T00:46:09;15.50;84.20
26909;DHT22;14477;51.038;4.588;2022-10-31T00:48:35;15.50;85.10
26909;DHT22;14477;51.038;4.588;2022-10-31T00:51:01;15.50;84.30
26909;DHT22;14477;51.038;4.588;2022-10-31T00:53:26;15.50;84.50
26909;DHT22;14477;51.038;4.588;2022-10-31T00:55:52;15.40;84.50
26909;DHT22;14477;51.038;4.588;2022-10-31T00:58:18;15.30;84.40
26909;DHT22;14477;51.038;4.588;2022-10-31T01:00:43;15.30;84.40
26909;DHT22;14477;51.038;4.588;2022-10-31T01:03:09;15.30;84.40
26909;DHT22;14477;51.038;4.588;2022-10-31T01:05:35;15.20;84.30
26909;DHT22;14477;51.038;4.588;2022-10-31T01:08:00;15.20;84.40
26909;DHT22;14477;51.038;4.588;2022-10-31T01:10:26;15.10;84.20
26909;DHT22;14477;51.038;4.588;2022-10-31T01:12:52;15.00;84.20
26909;DHT22;14477;51.038;4.588;2022-10-31T01:15:21;15.00;84.20
26909;DHT22;14477;51.038;4.588;2022-10-31T01:17:47;15.00;84.40
26909;DHT22;14477;51.038;4.588;2022-10-31T01:20:15;14.90;84.30
26909;DHT22;14477;51.038;4.588;2022-10-31T01:22:40;14.90;84.40
26909;DHT22;14477;51.038;4.588;2022-10-31T01:25:08;14.80;84.40
26909;DHT22;14477;51.038;4.588;2022-10-31T01:27:34;14.80;84.40
26909;DHT22;14477;51.038;4.588;2022-10-31T01:29:59;14.70;84.50
26909;DHT22;14477;51.038;4.588;2022-10-31T01:32:26;14.70;84.60
26909;DHT22;14477;51.038;4.588;2022-10-31T01:34:54;14.60;84.60
26909;DHT22;14477;51.038;4.588;2022-10-31T01:37:20;14.60;84.60
26909;DHT22;14477;51.038;4.588;2022-10-31T01:39:47;14.60;84.60
26909;DHT22;14477;51.038;4.588;2022-10-31T01:42:19;14.50;84.60
26909;DHT22;14477;51.038;4.588;2022-10-31T01:44:59;14.50;85.10
26909;DHT22;14477;51.038;4.588;2022-10-31T01:47:36;14.50;85.20
26909;DHT22;14477;51.038;4.588;2022-10-31T01:50:10;14.40;85.40
26909;DHT22;14477;51.038;4.588;2022-10-31T01:52:40;14.40;85.00
26909;DHT22;14477;51.038;4.588;2022-10-31T01:55:13;14.40;85.00
26909;DHT22;14477;51.038;4.588;2022-10-31T01:57:42;14.30;85.00
26909;DHT22;14477;51.038;4.588;2022-10-31T02:00:11;14.30;84.90
26909;DHT22;14477;51.038;4.588;2022-10-31T02:02:37;14.30;84.80
26909;DHT22;14477;51.038;4.588;2022-10-31T02:05:06;14.30;84.80
26909;DHT22;14477;51.038;4.588;2022-10-31T02:10:23;14.20;85.80
26909;DHT22;14477;51.038;4.588;2022-10-31T02:12:51;14.20;84.80
26909;DHT22;14477;51.038;4.588;2022-10-31T02:15:18;14.10;84.90
26909;DHT22;14477;51.038;4.588;2022-10-31T02:17:44;14.10;84.70
26909;DHT22;14477;51.038;4.588;2022-10-31T02:20:17;14.10;84.70
26909;DHT22;14477;51.038;4.588;2022-10-31T02:23:10;14.10;84.90
26909;DHT22;14477;51.038;4.588;2022-10-31T02:25:49;14.00;85.50
26909;DHT22;14477;51.038;4.588;2022-10-31T02:31:44;13.90;85.20
26909;DHT22;14477;51.038;4.588;2022-10-31T02:37:32;13.80;85.20
26909;DHT22;14477;51.038;4.588;2022-10-31T02:40:14;13.70;85.50
26909;DHT22;14477;51.038;4.588;2022-10-31T02:45:44;13.70;85.90
26909;DHT22;14477;51.038;4.588;2022-10-31T02:48:19;13.60;85.50
26909;DHT22;14477;51.038;4.588;2022-10-31T02:50:52;13.60;85.50
26909;DHT22;14477;51.038;4.588;2022-10-31T02:53:19;13.60;85.40
26909;DHT22;14477;51.038;4.588;2022-10-31T02:55:56;13.60;85.20
26909;DHT22;14477;51.038;4.588;2022-10-31T02:58:26;13.60;85.40
26909;DHT22;14477;51.038;4.588;2022-10-31T03:04:01;13.50;85.50
26909;DHT22;14477;51.038;4.588;2022-10-31T03:06:39;13.50;85.40
26909;DHT22;14477;51.038;4.588;2022-10-31T03:11:54;13.50;85.70
26909;DHT22;14477;51.038;4.588;2022-10-31T03:14:30;13.40;85.30
26909;DHT22;14477;51.038;4.588;2022-10-31T03:17:02;13.40;85.30
26909;DHT22;14477;51.038;4.588;2022-10-31T03:19:40;13.40;85.30
26909;DHT22;14477;51.038;4.588;2022-10-31T03:22:27;13.30;85.30
26909;DHT22;14477;51.038;4.588;2022-10-31T03:24:55;13.30;86.20
26909;DHT22;14477;51.038;4.588;2022-10-31T03:27:23;13.30;85.40
26909;DHT22;14477;51.038;4.588;2022-10-31T03:29:52;13.30;85.50
26909;DHT22;14477;51.038;4.588;2022-10-31T03:32:24;13.30;85.50
26909;DHT22;14477;51.038;4.588;2022-10-31T03:34:55;13.30;85.80
26909;DHT22;14477;51.038;4.588;2022-10-31T03:37:24;13.20;86.20
26909;DHT22;14477;51.038;4.588;2022-10-31T03:39:51;13.20;85.80
26909;DHT22;14477;51.038;4.588;2022-10-31T03:42:22;13.20;85.90
26909;DHT22;14477;51.038;4.588;2022-10-31T03:44:55;13.20;86.00
26909;DHT22;14477;51.038;4.588;2022-10-31T03:47:23;13.20;86.20
26909;DHT22;14477;51.038;4.588;2022-10-31T03:49:49;13.20;85.90
26909;DHT22;14477;51.038;4.588;2022-10-31T03:52:36;13.20;85.90
26909;DHT22;14477;51.038;4.588;2022-10-31T03:55:10;13.20;86.50
26909;DHT22;14477;51.038;4.588;2022-10-31T03:57:46;13.20;85.90
26909;DHT22;14477;51.038;4.588;2022-10-31T04:00:15;13.20;85.80
26909;DHT22;14477;51.038;4.588;2022-10-31T04:02:45;13.20;85.60
26909;DHT22;14477;51.038;4.588;2022-10-31T04:05:13;13.20;85.80
26909;DHT22;14477;51.038;4.588;2022-10-31T04:07:43;13.10;85.60
26909;DHT22;14477;51.038;4.588;2022-10-31T04:10:13;13.10;85.70
26909;DHT22;14477;51.038;4.588;2022-10-31T04:12:40;13.00;85.70
26909;DHT22;14477;51.038;4.588;2022-10-31T04:15:08;13.00;85.60
26909;DHT22;14477;51.038;4.588;2022-10-31T04:17:37;13.00;85.80
26909;DHT22;14477;51.038;4.588;2022-10-31T04:20:04;13.00;85.90
26909;DHT22;14477;51.038;4.588;2022-10-31T04:22:30;13.00;85.80
26909;DHT22;14477;51.038;4.588;2022-10-31T04:24:56;12.90;85.80
26909;DHT22;14477;51.038;4.588;2022-10-31T04:27:22;12.90;85.80
26909;DHT22;14477;51.038;4.588;2022-10-31T04:29:47;12.90;85.80
26909;DHT22;14477;51.038;4.588;2022-10-31T04:32:13;12.90;85.90
26909;DHT22;14477;51.038;4.588;2022-10-31T04:34:38;12.90;85.90
26909;DHT22;14477;51.038;4.588;2022-10-31T04:37:04;12.90;86.10
26909;DHT22;14477;51.038;4.588;2022-10-31T04:39:30;12.80;86.10
26909;DHT22;14477;51.038;4.588;2022-10-31T04:41:55;12.80;86.10
26909;DHT22;14477;51.038;4.588;2022-10-31T04:44:21;12.80;86.20
26909;DHT22;14477;51.038;4.588;2022-10-31T04:46:47;12.80;86.20
26909;DHT22;14477;51.038;4.588;2022-10-31T04:49:12;12.80;86.30
26909;DHT22;14477;51.038;4.588;2022-10-31T04:51:38;12.80;87.00
26909;DHT22;14477;51.038;4.588;2022-10-31T04:54:04;12.80;86.30
26909;DHT22;14477;51.038;4.588;2022-10-31T04:56:30;12.80;86.30
26909;DHT22;14477;51.038;4.588;2022-10-31T04:58:55;12.80;86.30
26909;DHT22;14477;51.038;4.588;2022-10-31T05:01:21;12.80;86.30
26909;DHT22;14477;51.038;4.588;2022-10-31T05:03:46;12.80;86.30
26909;DHT22;14477;51.038;4.588;2022-10-31T05:06:12;12.80;86.40
26909;DHT22;14477;51.038;4.588;2022-10-31T05:08:38;12.80;86.40
26909;DHT22;14477;51.038;4.588;2022-10-31T05:11:04;12.80;86.40
26909;DHT22;14477;51.038;4.588;2022-10-31T05:13:30;12.70;86.40
26909;DHT22;14477;51.038;4.588;2022-10-31T05:15:56;12.80;86.40
26909;DHT22;14477;51.038;4.588;2022-10-31T05:18:21;12.70;86.30
26909;DHT22;14477;51.038;4.588;2022-10-31T05:20:47;12.70;86.40
26909;DHT22;14477;51.038;4.588;2022-10-31T05:23:13;12.70;86.40
26909;DHT22;14477;51.038;4.588;2022-10-31T05:25:39;12.70;86.60
26909;DHT22;14477;51.038;4.588;2022-10-31T05:28:05;12.70;86.60
26909;DHT22;14477;51.038;4.588;2022-10-31T05:30:32;12.70;86.70
26909;DHT22;14477;51.038;4.588;2022-10-31T05:32:58;12.70;86.80
26909;DHT22;14477;51.038;4.588;2022-10-31T05:35:28;12.70;86.90
26909;DHT22;14477;51.038;4.588;2022-10-31T05:37:54;12.70;87.10
26909;DHT22;14477;51.038;4.588;2022-10-31T05:40:21;12.70;86.90
26909;DHT22;14477;51.038;4.588;2022-10-31T05:42:47;12.70;87.10
26909;DHT22;14477;51.038;4.588;2022-10-31T05:45:15;12.70;87.10
26909;DHT22;14477;51.038;4.588;2022-10-31T05:47:41;12.80;87.30
26909;DHT22;14477;51.038;4.588;2022-10-31T05:50:07;12.80;87.20
26909;DHT22;14477;51.038;4.588;2022-10-31T05:52:33;12.80;87.30
26909;DHT22;14477;51.038;4.588;2022-10-31T05:54:59;12.80;87.30
26909;DHT22;14477;51.038;4.588;2022-10-31T05:57:25;12.80;87.20
26909;DHT22;14477;51.038;4.588;2022-10-31T05:59:50;12.80;87.20
26909;DHT22;14477;51.038;4.588;2022-10-31T06:02:19;12.80;87.20
26909;DHT22;14477;51.038;4.588;2022-10-31T06:04:45;12.80;87.20
26909;DHT22;14477;51.038;4.588;2022-10-31T06:07:11;12.80;87.20
26909;DHT22;14477;51.038;4.588;2022-10-31T06:09:37;12.80;87.40
26909;DHT22;14477;51.038;4.588;2022-10-31T06:12:02;12.80;87.40
26909;DHT22;14477;51.038;4.588;2022-10-31T06:14:28;12.80;87.60
26909;DHT22;14477;51.038;4.588;2022-10-31T06:16:54;12.80;87.60
26909;DHT22;14477;51.038;4.588;2022-10-31T06:19:20;12.80;87.70
26909;DHT22;14477;51.038;4.588;2022-10-31T06:21:46;12.80;87.80
26909;DHT22;14477;51.038;4.588;2022-10-31T06:24:11;12.90;87.90
26909;DHT22;14477;51.038;4.588;2022-10-31T06:26:37;12.90;88.00
26909;DHT22;14477;51.038;4.588;2022-10-31T06:29:03;12.90;88.10
26909;DHT22;14477;51.038;4.588;2022-10-31T06:31:28;12.90;88.10
26909;DHT22;14477;51.038;4.588;2022-10-31T06:33:54;12.90;88.20
26909;DHT22;14477;51.038;4.588;2022-10-31T06:36:20;13.00;88.40
26909;DHT22;14477;51.038;4.588;2022-10-31T06:38:45;13.00;88.40
26909;DHT22;14477;51.038;4.588;2022-10-31T06:41:11;13.00;88.50
26909;DHT22;14477;51.038;4.588;2022-10-31T06:43:36;13.00;88.50
26909;DHT22;14477;51.038;4.588;2022-10-31T06:46:03;13.10;88.60
26909;DHT22;14477;51.038;4.588;2022-10-31T06:48:29;13.10;88.70
26909;DHT22;14477;51.038;4.588;2022-10-31T06:51:01;13.10;88.60
26909;DHT22;14477;51.038;4.588;2022-10-31T06:53:27;13.10;88.80
26909;DHT22;14477;51.038;4.588;2022-10-31T06:55:55;13.10;88.70
26909;DHT22;14477;51.038;4.588;2022-10-31T06:58:21;13.20;88.90
26909;DHT22;14477;51.038;4.588;2022-10-31T07:00:47;13.20;88.90
26909;DHT22;14477;51.038;4.588;2022-10-31T07:03:14;13.20;89.00
26909;DHT22;14477;51.038;4.588;2022-10-31T07:05:41;13.20;89.10
26909;DHT22;14477;51.038;4.588;2022-10-31T07:08:09;13.20;89.20
26909;DHT22;14477;51.038;4.588;2022-10-31T07:10:36;13.30;89.30
26909;DHT22;14477;51.038;4.588;2022-10-31T07:13:04;13.30;89.50
26909;DHT22;14477;51.038;4.588;2022-10-31T07:15:34;13.30;89.80
26909;DHT22;14477;51.038;4.588;2022-10-31T07:18:01;13.40;90.40
26909;DHT22;14477;51.038;4.588;2022-10-31T07:20:28;13.40;90.00
26909;DHT22;14477;51.038;4.588;2022-10-31T07:22:53;13.50;90.10
26909;DHT22;14477;51.038;4.588;2022-10-31T07:25:19;13.50;90.20
26909;DHT22;14477;51.038;4.588;2022-10-31T07:27:45;13.60;90.30
26909;DHT22;14477;51.038;4.588;2022-10-31T07:30:12;13.70;90.40
26909;DHT22;14477;51.038;4.588;2022-10-31T07:32:43;13.70;90.40
26909;DHT22;14477;51.038;4.588;2022-10-31T07:35:11;13.70;90.60
26909;DHT22;14477;51.038;4.588;2022-10-31T07:37:37;13.80;90.50
26909;DHT22;14477;51.038;4.588;2022-10-31T07:40:03;13.80;90.50
26909;DHT22;14477;51.038;4.588;2022-10-31T07:42:34;13.90;90.60
26909;DHT22;14477;51.038;4.588;2022-10-31T07:44:59;14.00;90.60
26909;DHT22;14477;51.038;4.588;2022-10-31T07:47:25;14.00;90.70
26909;DHT22;14477;51.038;4.588;2022-10-31T07:49:50;14.10;90.80
26909;DHT22;14477;51.038;4.588;2022-10-31T07:52:16;14.10;90.80
26909;DHT22;14477;51.038;4.588;2022-10-31T07:54:42;14.20;90.90
26909;DHT22;14477;51.038;4.588;2022-10-31T07:57:07;14.20;90.90
26909;DHT22;14477;51.038;4.588;2022-10-31T07:59:33;14.30;90.90
26909;DHT22;14477;51.038;4.588;2022-10-31T08:01:58;14.40;91.00
26909;DHT22;14477;51.038;4.588;2022-10-31T08:04:24;14.40;90.90
26909;DHT22;14477;51.038;4.588;2022-10-31T08:06:50;14.40;90.90
26909;DHT22;14477;51.038;4.588;2022-10-31T08:09:15;14.50;91.00
26909;DHT22;14477;51.038;4.588;2022-10-31T08:11:41;14.50;91.00
26909;DHT22;14477;51.038;4.588;2022-10-31T08:14:06;14.60;91.00
26909;DHT22;14477;51.038;4.588;2022-10-31T08:16:32;14.60;91.10
26909;DHT22;14477;51.038;4.588;2022-10-31T08:18:58;14.60;91.10
26909;DHT22;14477;51.038;4.588;2022-10-31T08:21:23;14.70;91.10
26909;DHT22;14477;51.038;4.588;2022-10-31T08:23:49;14.70;91.20
26909;DHT22;14477;51.038;4.588;2022-10-31T08:26:14;14.80;91.20
26909;DHT22;14477;51.038;4.588;2022-10-31T08:28:40;14.80;91.20
26909;DHT22;14477;51.038;4.588;2022-10-31T08:31:06;14.90;91.30
26909;DHT22;14477;51.038;4.588;2022-10-31T08:33:31;14.90;91.40
26909;DHT22;14477;51.038;4.588;2022-10-31T08:36:00;14.90;91.40
26909;DHT22;14477;51.038;4.588;2022-10-31T08:38:26;15.00;91.60
26909;DHT22;14477;51.038;4.588;2022-10-31T08:40:51;15.10;91.60
26909;DHT22;14477;51.038;4.588;2022-10-31T08:43:18;15.10;91.60
26909;DHT22;14477;51.038;4.588;2022-10-31T08:45:47;15.20;91.60
26909;DHT22;14477;51.038;4.588;2022-10-31T08:48:14;15.20;91.70
26909;DHT22;14477;51.038;4.588;2022-10-31T08:50:40;15.30;91.70
26909;DHT22;14477;51.038;4.588;2022-10-31T08:53:11;15.40;91.60
26909;DHT22;14477;51.038;4.588;2022-10-31T08:55:38;15.40;91.60
26909;DHT22;14477;51.038;4.588;2022-10-31T08:58:06;15.50;91.50
26909;DHT22;14477;51.038;4.588;2022-10-31T09:00:33;15.50;91.50
26909;DHT22;14477;51.038;4.588;2022-10-31T09:03:04;15.50;91.50
26909;DHT22;14477;51.038;4.588;2022-10-31T09:05:31;15.50;91.50
26909;DHT22;14477;51.038;4.588;2022-10-31T09:07:58;15.50;91.40
26909;DHT22;14477;51.038;4.588;2022-10-31T09:10:24;15.60;91.50
26909;DHT22;14477;51.038;4.588;2022-10-31T09:13:05;15.60;91.90
26909;DHT22;14477;51.038;4.588;2022-10-31T09:15:35;15.60;91.90
26909;DHT22;14477;51.038;4.588;2022-10-31T09:18:02;15.60;91.70
26909;DHT22;14477;51.038;4.588;2022-10-31T09:20:28;15.70;91.90
26909;DHT22;14477;51.038;4.588;2022-10-31T09:23:06;15.70;91.90
26909;DHT22;14477;51.038;4.588;2022-10-31T09:25:33;15.80;92.30
26909;DHT22;14477;51.038;4.588;2022-10-31T09:28:00;15.80;92.10
26909;DHT22;14477;51.038;4.588;2022-10-31T09:30:28;15.90;92.20
26909;DHT22;14477;51.038;4.588;2022-10-31T09:32:57;15.90;92.30
26909;DHT22;14477;51.038;4.588;2022-10-31T09:35:23;16.00;92.40
26909;DHT22;14477;51.038;4.588;2022-10-31T09:37:56;16.10;92.70
26909;DHT22;14477;51.038;4.588;2022-10-31T09:40:38;16.20;92.50
26909;DHT22;14477;51.038;4.588;2022-10-31T09:48:38;16.30;92.40
26909;DHT22;14477;51.038;4.588;2022-10-31T09:56:47;16.40;92.10
26909;DHT22;14477;51.038;4.588;2022-10-31T09:59:31;16.40;91.80
26909;DHT22;14477;51.038;4.588;2022-10-31T10:02:27;16.40;92.20
26909;DHT22;14477;51.038;4.588;2022-10-31T10:04:58;16.40;92.10
26909;DHT22;14477;51.038;4.588;2022-10-31T10:10:26;16.40;92.00
26909;DHT22;14477;51.038;4.588;2022-10-31T10:18:31;16.50;92.60
26909;DHT22;14477;51.038;4.588;2022-10-31T10:26:43;16.70;93.30
26909;DHT22;14477;51.038;4.588;2022-10-31T10:32:25;16.90;93.50
26909;DHT22;14477;51.038;4.588;2022-10-31T10:34:59;17.00;93.30
26909;DHT22;14477;51.038;4.588;2022-10-31T10:37:31;17.10;93.20
26909;DHT22;14477;51.038;4.588;2022-10-31T10:40:13;17.30;93.20
26909;DHT22;14477;51.038;4.588;2022-10-31T10:42:44;17.40;93.60
26909;DHT22;14477;51.038;4.588;2022-10-31T10:45:29;17.40;93.10
26909;DHT22;14477;51.038;4.588;2022-10-31T10:48:33;17.50;93.20
26909;DHT22;14477;51.038;4.588;2022-10-31T10:51:01;17.70;93.50
26909;DHT22;14477;51.038;4.588;2022-10-31T10:56:52;17.90;93.50
26909;DHT22;14477;51.038;4.588;2022-10-31T10:59:22;18.00;93.40
26909;DHT22;14477;51.038;4.588;2022-10-31T11:01:50;18.20;93.20
26909;DHT22;14477;51.038;4.588;2022-10-31T11:04:35;18.20;93.00
26909;DHT22;14477;51.038;4.588;2022-10-31T11:07:11;18.20;93.00
26909;DHT22;14477;51.038;4.588;2022-10-31T11:09:37;18.40;93.40
26909;DHT22;14477;51.038;4.588;2022-10-31T11:12:22;18.50;94.00
26909;DHT22;14477;51.038;4.588;2022-10-31T11:14:58;18.70;94.60
26909;DHT22;14477;51.038;4.588;2022-10-31T11:17:35;19.00;95.30
26909;DHT22;14477;51.038;4.588;2022-10-31T11:22:44;19.60;95.20
26909;DHT22;14477;51.038;4.588;2022-10-31T11:27:45;20.20;94.70
26909;DHT22;14477;51.038;4.588;2022-10-31T11:30:13;20.40;94.80
26909;DHT22;14477;51.038;4.588;2022-10-31T11:32:48;20.60;94.20
26909;DHT22;14477;51.038;4.588;2022-10-31T11:35:17;20.80;93.30
26909;DHT22;14477;51.038;4.588;2022-10-31T11:37:46;20.90;93.30
26909;DHT22;14477;51.038;4.588;2022-10-31T11:40:19;20.90;92.90
26909;DHT22;14477;51.038;4.588;2022-10-31T11:42:46;20.90;92.30
26909;DHT22;14477;51.038;4.588;2022-10-31T11:45:30;20.90;92.30
26909;DHT22;14477;51.038;4.588;2022-10-31T11:47:58;20.90;92.30
26909;DHT22;14477;51.038;4.588;2022-10-31T11:50:32;21.00;92.20
26909;DHT22;14477;51.038;4.588;2022-10-31T11:52:58;21.00;92.00
26909;DHT22;14477;51.038;4.588;2022-10-31T11:55:34;21.00;92.10
26909;DHT22;14477;51.038;4.588;2022-10-31T11:58:01;21.00;91.70
26909;DHT22;14477;51.038;4.588;2022-10-31T12:00:30;21.00;92.00
26909;DHT22;14477;51.038;4.588;2022-10-31T12:06:03;21.00;91.20
26909;DHT22;14477;51.038;4.588;2022-10-31T12:08:34;21.00;91.60
26909;DHT22;14477;51.038;4.588;2022-10-31T12:16:51;21.10;91.10
26909;DHT22;14477;51.038;4.588;2022-10-31T12:27:55;21.40;92.30
26909;DHT22;14477;51.038;4.588;2022-10-31T12:31:09;21.60;92.40
26909;DHT22;14477;51.038;4.588;2022-10-31T12:33:47;21.90;92.00
26909;DHT22;14477;51.038;4.588;2022-10-31T12:39:23;22.50;92.10
26909;DHT22;14477;51.038;4.588;2022-10-31T12:49:59;23.80;92.50
26909;DHT22;14477;51.038;4.588;2022-10-31T12:52:39;24.20;92.40
26909;DHT22;14477;51.038;4.588;2022-10-31T12:58:10;25.10;90.90
26909;DHT22;14477;51.038;4.588;2022-10-31T13:00:43;25.40;92.20
26909;DHT22;14477;51.038;4.588;2022-10-31T13:05:52;25.90;88.90
26909;DHT22;14477;51.038;4.588;2022-10-31T13:08:33;26.00;88.00
26909;DHT22;14477;51.038;4.588;2022-10-31T13:16:19;25.90;84.60
26909;DHT22;14477;51.038;4.588;2022-10-31T13:21:27;26.00;85.70
26909;DHT22;14477;51.038;4.588;2022-10-31T13:23:55;26.00;85.10
26909;DHT22;14477;51.038;4.588;2022-10-31T13:29:26;26.20;83.20
26909;DHT22;14477;51.038;4.588;2022-10-31T13:31:52;26.30;83.00
26909;DHT22;14477;51.038;4.588;2022-10-31T13:34:40;26.30;84.80
26909;DHT22;14477;51.038;4.588;2022-10-31T13:40:05;26.60;81.60
26909;DHT22;14477;51.038;4.588;2022-10-31T13:45:21;26.90;83.00
26909;DHT22;14477;51.038;4.588;2022-10-31T13:48:17;27.10;80.10
26909;DHT22;14477;51.038;4.588;2022-10-31T13:50:55;27.20;79.70
26909;DHT22;14477;51.038;4.588;2022-10-31T13:53:34;27.30;78.80
26909;DHT22;14477;51.038;4.588;2022-10-31T13:58:35;27.20;78.20
26909;DHT22;14477;51.038;4.588;2022-10-31T14:01:15;27.10;78.50
26909;DHT22;14477;51.038;4.588;2022-10-31T14:03:44;27.10;76.50
26909;DHT22;14477;51.038;4.588;2022-10-31T14:06:11;27.00;77.40
26909;DHT22;14477;51.038;4.588;2022-10-31T14:08:40;26.90;77.40
26909;DHT22;14477;51.038;4.588;2022-10-31T14:11:08;26.80;76.40
26909;DHT22;14477;51.038;4.588;2022-10-31T14:13:42;26.70;76.30
26909;DHT22;14477;51.038;4.588;2022-10-31T14:19:13;26.40;73.70
26909;DHT22;14477;51.038;4.588;2022-10-31T14:21:47;26.40;73.80
26909;DHT22;14477;51.038;4.588;2022-10-31T14:29:31;25.90;73.80
26909;DHT22;14477;51.038;4.588;2022-10-31T14:34:35;25.70;74.20
26909;DHT22;14477;51.038;4.588;2022-10-31T14:37:10;25.50;73.40
26909;DHT22;14477;51.038;4.588;2022-10-31T14:50:51;24.70;73.60
26909;DHT22;14477;51.038;4.588;2022-10-31T14:53:41;24.50;73.10
26909;DHT22;14477;51.038;4.588;2022-10-31T14:56:10;24.40;73.30
26909;DHT22;14477;51.038;4.588;2022-10-31T14:58:42;24.20;73.80
26909;DHT22;14477;51.038;4.588;2022-10-31T15:01:30;24.00;73.60
26909;DHT22;14477;51.038;4.588;2022-10-31T15:04:23;23.80;73.50
26909;DHT22;14477;51.038;4.588;2022-10-31T15:07:05;23.60;73.60
26909;DHT22;14477;51.038;4.588;2022-10-31T15:09:35;23.50;74.00
26909;DHT22;14477;51.038;4.588;2022-10-31T15:12:25;23.30;74.00
26909;DHT22;14477;51.038;4.588;2022-10-31T15:14:52;23.10;73.80
26909;DHT22;14477;51.038;4.588;2022-10-31T15:17:19;22.90;74.10
26909;DHT22;14477;51.038;4.588;2022-10-31T15:19:45;22.80;74.30
26909;DHT22;14477;51.038;4.588;2022-10-31T15:22:16;22.70;74.50
26909;DHT22;14477;51.038;4.588;2022-10-31T15:24:42;22.60;74.70
26909;DHT22;14477;51.038;4.588;2022-10-31T15:27:16;22.50;74.80
26909;DHT22;14477;51.038;4.588;2022-10-31T15:29:49;22.30;74.90
26909;DHT22;14477;51.038;4.588;2022-10-31T15:32:27;22.20;74.90
26909;DHT22;14477;51.038;4.588;2022-10-31T15:34:54;22.10;75.20
26909;DHT22;14477;51.038;4.588;2022-10-31T15:37:22;22.00;75.10
26909;DHT22;14477;51.038;4.588;2022-10-31T15:39:49;21.90;75.20
26909;DHT22;14477;51.038;4.588;2022-10-31T15:44:51;21.60;75.50
26909;DHT22;14477;51.038;4.588;2022-10-31T15:47:20;21.50;75.60
26909;DHT22;14477;51.038;4.588;2022-10-31T15:49:54;21.40;75.70
26909;DHT22;14477;51.038;4.588;2022-10-31T15:52:40;21.30;76.00
26909;DHT22;14477;51.038;4.588;2022-10-31T15:57:45;21.10;76.30
26909;DHT22;14477;51.038;4.588;2022-10-31T16:00:40;21.00;76.50
26909;DHT22;14477;51.038;4.588;2022-10-31T16:05:51;20.80;76.80
26909;DHT22;14477;51.038;4.588;2022-10-31T16:14:25;20.60;77.70
26909;DHT22;14477;51.038;4.588;2022-10-31T16:16:54;20.50;77.80
26909;DHT22;14477;51.038;4.588;2022-10-31T16:19:28;20.40;77.00
26909;DHT22;14477;51.038;4.588;2022-10-31T16:22:20;20.30;77.20
26909;DHT22;14477;51.038;4.588;2022-10-31T16:25:12;20.30;78.10
26909;DHT22;14477;51.038;4.588;2022-10-31T16:27:39;20.20;77.90
26909;DHT22;14477;51.038;4.588;2022-10-31T16:30:29;20.10;77.50
26909;DHT22;14477;51.038;4.588;2022-10-31T16:32:58;20.00;78.70
26909;DHT22;14477;51.038;4.588;2022-10-31T16:35:38;19.90;78.20
26909;DHT22;14477;51.038;4.588;2022-10-31T16:38:04;19.80;79.00
26909;DHT22;14477;51.038;4.588;2022-10-31T16:40:30;19.80;78.30
26909;DHT22;14477;51.038;4.588;2022-10-31T16:42:59;19.70;78.30
26909;DHT22;14477;51.038;4.588;2022-10-31T16:45:30;19.70;78.60
26909;DHT22;14477;51.038;4.588;2022-10-31T16:48:11;19.60;78.80
26909;DHT22;14477;51.038;4.588;2022-10-31T16:50:37;19.60;79.30
26909;DHT22;14477;51.038;4.588;2022-10-31T16:53:03;19.60;78.60
26909;DHT22;14477;51.038;4.588;2022-10-31T16:55:29;19.50;78.60
26909;DHT22;14477;51.038;4.588;2022-10-31T16:57:56;19.50;78.70
26909;DHT22;14477;51.038;4.588;2022-10-31T17:00:23;19.40;78.90
26909;DHT22;14477;51.038;4.588;2022-10-31T17:02:55;19.40;79.00
26909;DHT22;14477;51.038;4.588;2022-10-31T17:05:22;19.30;79.40
26909;DHT22;14477;51.038;4.588;2022-10-31T17:07:55;19.30;79.10
26909;DHT22;14477;51.038;4.588;2022-10-31T17:10:22;19.30;79.10
26909;DHT22;14477;51.038;4.588;2022-10-31T17:12:49;19.20;79.10
26909;DHT22;14477;51.038;4.588;2022-10-31T17:15:21;19.20;79.30
26909;DHT22;14477;51.038;4.588;2022-10-31T17:17:47;19.10;79.50
26909;DHT22;14477;51.038;4.588;2022-10-31T17:20:33;19.00;79.40
26909;DHT22;14477;51.038;4.588;2022-10-31T17:22:59;19.00;80.60
26909;DHT22;14477;51.038;4.588;2022-10-31T17:25:27;18.90;79.50
26909;DHT22;14477;51.038;4.588;2022-10-31T17:27:53;18.90;79.80
26909;DHT22;14477;51.038;4.588;2022-10-31T17:30:21;18.80;79.70
26909;DHT22;14477;51.038;4.588;2022-10-31T17:32:48;18.80;79.90
26909;DHT22;14477;51.038;4.588;2022-10-31T17:35:14;18.70;79.90
26909;DHT22;14477;51.038;4.588;2022-10-31T17:37:42;18.70;80.70
26909;DHT22;14477;51.038;4.588;2022-10-31T17:40:09;18.60;80.20
26909;DHT22;14477;51.038;4.588;2022-10-31T17:42:35;18.60;80.40
26909;DHT22;14477;51.038;4.588;2022-10-31T17:45:00;18.60;80.40
26909;DHT22;14477;51.038;4.588;2022-10-31T17:47:26;18.50;80.40
26909;DHT22;14477;51.038;4.588;2022-10-31T17:49:52;18.50;80.50
26909;DHT22;14477;51.038;4.588;2022-10-31T17:52:18;18.50;80.50
26909;DHT22;14477;51.038;4.588;2022-10-31T17:54:44;18.40;80.60
26909;DHT22;14477;51.038;4.588;2022-10-31T17:57:11;18.40;80.60
26909;DHT22;14477;51.038;4.588;2022-10-31T17:59:36;18.30;80.70
26909;DHT22;14477;51.038;4.588;2022-10-31T18:02:02;18.40;80.80
26909;DHT22;14477;51.038;4.588;2022-10-31T18:04:34;18.30;80.90
26909;DHT22;14477;51.038;4.588;2022-10-31T18:07:00;18.30;81.00
26909;DHT22;14477;51.038;4.588;2022-10-31T18:09:25;18.20;80.90
26909;DHT22;14477;51.038;4.588;2022-10-31T18:11:51;18.20;81.10